Time;durP1;ratioP1;P1;durP2;ratioP2;P2;SDS_P1;SDS_P2;PMS_P1;PMS_P2;Temp;Humidity;BMP_temperature;BMP_pressure;BME280_temperature;BME280_humidity;BME280_pressure;Samples;Min_cycle;Max_cycle;Signal;HPM_P1;HPM_P2
2022/08/13 00:02:32;;;;;;;33.40;2.77;;;;;;;;;;5022585;28;20552;-84
2022/08/13 00:05:36;;;;;;;9.30;1.87;;;;;;;;;;5011933;28;20185;-84
2022/08/13 00:08:40;;;;;;;4.57;2.10;;;;;;;;;;5011540;28;20180;-84
2022/08/13 00:15:12;;;;;;;2.63;1.40;;;;;;;;;;5035323;28;20185;-84
2022/08/13 00:18:19;;;;;;;7.90;1.80;;;;;;;;;;5034822;28;20181;-83
2022/08/13 00:21:23;;;;;;;3.03;1.50;;;;;;;;;;5033888;28;20651;-84
2022/08/13 00:24:29;;;;;;;5.53;1.60;;;;;;;;;;5034320;28;20640;-83
2022/08/13 00:27:34;;;;;;;6.47;1.60;;;;;;;;;;5012305;28;20185;-84
2022/08/13 00:30:38;;;;;;;4.40;1.80;;;;;;;;;;5037415;28;20217;-84
2022/08/13 00:33:42;;;;;;;2.10;1.63;;;;;;;;;;5025871;28;20224;-84
2022/08/13 00:36:47;;;;;;;4.53;1.80;;;;;;;;;;5015294;28;20196;-84
2022/08/13 00:39:53;;;;;;;2.07;1.70;;;;;;;;;;4996071;28;20178;-84
2022/08/13 00:43:03;;;;;;;2.70;1.60;;;;;;;;;;5017960;28;20224;-84
2022/08/13 00:46:06;;;;;;;5.77;2.00;;;;;;;;;;5017140;28;20182;-84
2022/08/13 00:49:12;;;;;;;3.03;1.70;;;;;;;;;;5017154;28;20197;-84
2022/08/13 00:52:17;;;;;;;1.40;1.30;;;;;;;;;;5005816;28;20578;-84
2022/08/13 00:55:22;;;;;;;4.37;1.90;;;;;;;;;;5005600;28;20182;-84
2022/08/13 00:58:27;;;;;;;2.70;1.70;;;;;;;;;;5006275;28;20193;-84
2022/08/13 01:01:31;;;;;;;1.90;1.70;;;;;;;;;;5005270;28;20189;-84
2022/08/13 01:04:36;;;;;;;1.67;1.57;;;;;;;;;;5005623;28;20181;-84
2022/08/13 01:07:41;;;;;;;2.00;1.60;;;;;;;;;;5005830;28;20182;-84
2022/08/13 01:10:49;;;;;;;2.87;1.73;;;;;;;;;;5005181;28;20209;-84
2022/08/13 01:13:55;;;;;;;2.10;1.67;;;;;;;;;;5016343;28;20206;-84
2022/08/13 01:17:02;;;;;;;2.60;2.13;;;;;;;;;;5016276;28;20201;-84
2022/08/13 01:20:16;;;;;;;4.23;1.63;;;;;;;;;;5015993;28;20197;-84
2022/08/13 01:23:20;;;;;;;4.10;1.57;;;;;;;;;;5015896;28;20221;-84
2022/08/13 01:26:24;;;;;;;3.07;1.50;;;;;;;;;;5028891;28;20189;-84
2022/08/13 01:29:30;;;;;;;4.70;1.87;;;;;;;;;;5016636;28;20178;-84
2022/08/13 01:32:37;;;;;;;3.77;1.90;;;;;;;;;;5004952;28;20218;-84
2022/08/13 01:35:41;;;;;;;2.87;1.70;;;;;;;;;;5005345;28;20177;-84
2022/08/13 01:38:46;;;;;;;1.90;1.70;;;;;;;;;;5005564;28;20186;-84
2022/08/13 01:41:50;;;;;;;2.17;1.90;;;;;;;;;;5027541;28;20587;-84
2022/08/13 01:44:54;;;;;;;2.37;1.87;;;;;;;;;;5005061;28;20181;-84
2022/08/13 01:51:23;;;;;;;3.07;1.90;;;;;;;;;;5027990;28;20210;-84
2022/08/13 01:54:28;;;;;;;4.97;2.20;;;;;;;;;;5015361;28;20198;-84
2022/08/13 01:57:37;;;;;;;2.53;1.90;;;;;;;;;;5015996;28;20198;-84
2022/08/13 02:00:45;;;;;;;4.87;2.20;;;;;;;;;;5004399;28;20664;-84
2022/08/13 02:03:49;;;;;;;2.40;1.93;;;;;;;;;;5004512;28;20177;-84
2022/08/13 02:06:54;;;;;;;2.10;1.83;;;;;;;;;;5015968;28;20178;-84
2022/08/13 02:09:58;;;;;;;2.10;1.90;;;;;;;;;;5017679;28;20208;-83
2022/08/13 02:13:03;;;;;;;3.57;2.00;;;;;;;;;;5034822;28;20212;-84
2022/08/13 02:16:08;;;;;;;2.30;2.00;;;;;;;;;;5035747;28;20185;-84
2022/08/13 02:19:12;;;;;;;3.73;2.40;;;;;;;;;;5024027;28;20181;-83
2022/08/13 02:22:17;;;;;;;3.53;2.00;;;;;;;;;;5023123;28;20223;-84
2022/08/13 02:25:23;;;;;;;4.00;2.07;;;;;;;;;;5012389;28;20184;-83
2022/08/13 02:28:32;;;;;;;2.93;2.00;;;;;;;;;;5034099;28;20200;-84
2022/08/13 02:31:36;;;;;;;2.17;1.93;;;;;;;;;;5025880;28;20213;-84
2022/08/13 02:34:40;;;;;;;3.70;2.20;;;;;;;;;;5036872;28;20197;-83
2022/08/13 02:37:46;;;;;;;6.27;2.10;;;;;;;;;;5037966;28;20200;-83
2022/08/13 02:44:14;;;;;;;6.00;2.33;;;;;;;;;;5039055;28;20513;-84
2022/08/13 02:47:21;;;;;;;2.50;2.07;;;;;;;;;;5029809;28;20204;-84
2022/08/13 02:50:27;;;;;;;2.30;2.10;;;;;;;;;;5039839;28;20220;-84
2022/08/13 02:53:32;;;;;;;3.37;2.10;;;;;;;;;;5010420;28;20217;-84
2022/08/13 02:56:36;;;;;;;3.37;2.10;;;;;;;;;;5032405;28;20632;-84
2022/08/13 02:59:41;;;;;;;2.97;2.40;;;;;;;;;;5020252;28;20197;-84
2022/08/13 03:02:46;;;;;;;2.40;2.20;;;;;;;;;;5020034;28;20569;-84
2022/08/13 03:05:51;;;;;;;2.57;2.30;;;;;;;;;;5020668;28;20181;-84
2022/08/13 03:08:55;;;;;;;2.47;2.20;;;;;;;;;;5031936;28;20177;-84
2022/08/13 03:12:04;;;;;;;2.40;2.20;;;;;;;;;;5020455;28;20271;-84
2022/08/13 03:15:10;;;;;;;5.00;2.30;;;;;;;;;;5021129;28;20173;-84
2022/08/13 03:18:14;;;;;;;2.47;2.27;;;;;;;;;;5034348;28;20201;-84
2022/08/13 03:25:10;;;;;;;2.10;1.90;;;;;;;;;;4943844;29;20216;-85
2022/08/13 03:28:14;;;;;;;3.70;2.10;;;;;;;;;;4934633;29;20175;-85
2022/08/13 03:31:19;;;;;;;4.30;2.30;;;;;;;;;;4934871;29;20211;-86
2022/08/13 03:34:23;;;;;;;2.67;2.30;;;;;;;;;;4916360;29;20207;-85
2022/08/13 03:37:28;;;;;;;2.93;2.27;;;;;;;;;;4916121;29;20199;-85
2022/08/13 03:43:56;;;;;;;2.37;2.00;;;;;;;;;;4927240;29;20220;-85
2022/08/13 03:47:00;;;;;;;5.20;2.27;;;;;;;;;;4927355;29;20189;-85
2022/08/13 03:50:06;;;;;;;4.20;2.10;;;;;;;;;;4915844;29;20200;-85
2022/08/13 03:53:11;;;;;;;2.60;2.40;;;;;;;;;;4915895;29;20216;-85
2022/08/13 03:56:15;;;;;;;2.37;2.07;;;;;;;;;;4916093;29;20184;-86
2022/08/13 03:59:19;;;;;;;2.27;2.00;;;;;;;;;;4916005;29;20200;-85
2022/08/13 04:02:23;;;;;;;2.47;2.27;;;;;;;;;;4940218;29;20219;-85
2022/08/13 04:05:28;;;;;;;2.40;2.00;;;;;;;;;;4930757;29;20183;-86
2022/08/13 04:08:34;;;;;;;3.00;2.00;;;;;;;;;;4930339;29;20192;-85
2022/08/13 04:11:39;;;;;;;8.13;2.03;;;;;;;;;;4919732;29;20671;-86
2022/08/13 04:14:43;;;;;;;2.97;1.87;;;;;;;;;;4920090;29;20192;-86
2022/08/13 04:17:47;;;;;;;2.47;2.10;;;;;;;;;;4919291;29;20192;-85
2022/08/13 04:20:54;;;;;;;2.50;2.00;;;;;;;;;;4930542;29;20180;-86
2022/08/13 04:24:03;;;;;;;3.00;2.00;;;;;;;;;;4918506;29;20224;-85
2022/08/13 04:27:07;;;;;;;2.47;2.23;;;;;;;;;;4929647;29;20185;-85
2022/08/13 04:30:16;;;;;;;5.07;1.70;;;;;;;;;;4918535;29;20184;-85
2022/08/13 04:33:20;;;;;;;3.73;2.00;;;;;;;;;;4940416;29;20228;-85
2022/08/13 04:36:24;;;;;;;3.30;2.67;;;;;;;;;;4929193;29;20659;-87
2022/08/13 04:39:28;;;;;;;3.23;2.20;;;;;;;;;;4918702;29;20184;-85
2022/08/13 04:42:44;;;;;;;3.03;2.67;;;;;;;;;;4940825;29;20220;-85
2022/08/13 04:45:48;;;;;;;2.60;2.40;;;;;;;;;;4918800;29;20556;-86
2022/08/13 04:48:54;;;;;;;3.60;2.67;;;;;;;;;;4910735;29;20521;-85
2022/08/13 04:51:58;;;;;;;2.50;2.23;;;;;;;;;;4899658;29;20688;-85
2022/08/13 04:55:03;;;;;;;2.43;2.20;;;;;;;;;;4899811;29;20208;-86
2022/08/13 04:58:08;;;;;;;2.77;2.40;;;;;;;;;;4909694;29;20551;-86
2022/08/13 05:01:13;;;;;;;2.70;2.50;;;;;;;;;;4898873;29;20180;-85
2022/08/13 05:04:17;;;;;;;3.03;2.33;;;;;;;;;;4898942;29;20525;-85
2022/08/13 05:07:21;;;;;;;2.30;2.10;;;;;;;;;;4898689;29;20185;-86
2022/08/13 05:10:25;;;;;;;3.37;2.27;;;;;;;;;;4898468;29;20209;-85
2022/08/13 05:13:32;;;;;;;3.27;2.50;;;;;;;;;;4909582;29;20212;-85
2022/08/13 05:16:37;;;;;;;4.90;2.70;;;;;;;;;;4909860;29;20185;-86
2022/08/13 05:19:42;;;;;;;2.80;2.30;;;;;;;;;;4909377;29;20181;-85
2022/08/13 05:22:46;;;;;;;4.83;3.00;;;;;;;;;;4897633;29;20220;-86
2022/08/13 05:25:51;;;;;;;5.10;2.77;;;;;;;;;;4908670;29;20200;-85
2022/08/13 05:29:04;;;;;;;3.30;2.70;;;;;;;;;;4908575;29;20196;-85
2022/08/13 05:32:10;;;;;;;4.43;2.80;;;;;;;;;;4907813;29;20229;-86
2022/08/13 05:35:14;;;;;;;4.43;2.67;;;;;;;;;;4907875;29;20181;-85
2022/08/13 05:38:23;;;;;;;2.67;2.47;;;;;;;;;;4897687;29;20181;-85
2022/08/13 05:41:28;;;;;;;3.33;2.80;;;;;;;;;;4907914;29;20181;-86
2022/08/13 05:44:33;;;;;;;3.03;2.63;;;;;;;;;;4908031;29;20185;-86
2022/08/13 05:47:37;;;;;;;5.23;3.40;;;;;;;;;;4908317;29;20189;-86
2022/08/13 05:50:42;;;;;;;4.93;2.73;;;;;;;;;;4908158;29;20629;-86
2022/08/13 05:53:46;;;;;;;8.50;3.37;;;;;;;;;;4907594;29;20557;-86
2022/08/13 05:56:50;;;;;;;3.17;2.73;;;;;;;;;;4907712;29;20189;-86
2022/08/13 06:03:27;;;;;;;5.50;3.07;;;;;;;;;;4896163;29;20212;-86
2022/08/13 06:06:32;;;;;;;4.03;2.40;;;;;;;;;;4907215;29;20185;-86
2022/08/13 06:09:36;;;;;;;2.97;2.70;;;;;;;;;;4907023;29;20188;-86
2022/08/13 06:12:43;;;;;;;4.33;2.50;;;;;;;;;;4917759;29;20228;-85
2022/08/13 06:15:57;;;;;;;4.77;2.87;;;;;;;;;;4907236;29;20184;-86
2022/08/13 06:19:01;;;;;;;3.07;2.77;;;;;;;;;;4907375;29;20181;-86
2022/08/13 06:22:05;;;;;;;3.20;2.90;;;;;;;;;;4906714;29;20220;-86
2022/08/13 06:25:09;;;;;;;3.00;2.70;;;;;;;;;;4895035;29;20181;-86
2022/08/13 06:28:15;;;;;;;3.07;2.53;;;;;;;;;;4896312;29;20176;-86
2022/08/13 06:31:31;;;;;;;6.23;2.93;;;;;;;;;;4895900;29;20181;-86
2022/08/13 06:34:35;;;;;;;46.50;5.77;;;;;;;;;;4907016;29;20181;-86
2022/08/13 06:37:41;;;;;;;13.80;3.43;;;;;;;;;;4907001;29;20526;-86
2022/08/13 06:40:46;;;;;;;14.07;3.40;;;;;;;;;;4906648;29;20185;-86
2022/08/13 06:43:52;;;;;;;8.50;3.13;;;;;;;;;;4914074;29;20215;-86
2022/08/13 06:46:58;;;;;;;4.53;2.70;;;;;;;;;;4914491;29;20180;-86
2022/08/13 06:50:09;;;;;;;53.13;5.87;;;;;;;;;;4914787;29;20180;-86
2022/08/13 06:53:14;;;;;;;5.80;3.33;;;;;;;;;;4914600;29;20227;-86
2022/08/13 06:56:21;;;;;;;6.00;3.97;;;;;;;;;;4915039;29;20192;-86
2022/08/13 06:59:26;;;;;;;7.03;3.60;;;;;;;;;;4903760;29;20204;-86
2022/08/13 07:02:32;;;;;;;5.40;2.70;;;;;;;;;;4903605;29;20212;-87
2022/08/13 07:05:40;;;;;;;3.47;3.17;;;;;;;;;;4903896;29;20524;-87
2022/08/13 07:08:45;;;;;;;8.80;3.03;;;;;;;;;;4903947;29;20184;-87
2022/08/13 07:11:50;;;;;;;3.33;2.73;;;;;;;;;;4914810;29;20212;-87
2022/08/13 07:14:55;;;;;;;4.07;2.57;;;;;;;;;;4914293;29;20192;-85
2022/08/13 07:17:59;;;;;;;3.40;3.10;;;;;;;;;;4914522;29;20528;-86
2022/08/13 07:21:09;;;;;;;2.47;2.27;;;;;;;;;;4925123;29;20180;-86
2022/08/13 07:24:13;;;;;;;2.63;2.30;;;;;;;;;;4931029;29;20189;-85
2022/08/13 07:27:17;;;;;;;3.93;2.27;;;;;;;;;;4914091;29;20184;-86
2022/08/13 07:30:22;;;;;;;7.13;2.50;;;;;;;;;;4901345;29;20200;-86
2022/08/13 07:33:27;;;;;;;6.23;2.50;;;;;;;;;;4914202;29;20235;-86
2022/08/13 07:36:35;;;;;;;55.67;4.97;;;;;;;;;;4914755;29;20548;-85
2022/08/13 07:39:39;;;;;;;9.33;2.80;;;;;;;;;;4923678;29;20193;-85
2022/08/13 07:42:44;;;;;;;9.93;2.40;;;;;;;;;;4928191;29;20691;-85
2022/08/13 07:46:02;;;;;;;6.50;2.60;;;;;;;;;;4899048;29;20193;-85
2022/08/13 07:49:09;;;;;;;8.50;2.60;;;;;;;;;;4929028;29;20184;-85
2022/08/13 07:52:14;;;;;;;3.40;2.33;;;;;;;;;;4909708;29;20224;-86
2022/08/13 07:55:19;;;;;;;8.20;3.07;;;;;;;;;;4920441;29;20189;-86
2022/08/13 07:58:27;;;;;;;93.13;7.23;;;;;;;;;;4905462;29;20647;-86
2022/08/13 08:01:43;;;;;;;25.53;3.13;;;;;;;;;;4924724;29;20196;-86
2022/08/13 08:04:48;;;;;;;7.50;2.50;;;;;;;;;;4900923;29;20942;-84
2022/08/13 08:07:53;;;;;;;4.77;2.70;;;;;;;;;;4917504;29;20208;-84
2022/08/13 08:10:57;;;;;;;12.20;3.47;;;;;;;;;;4912349;29;20192;-83
2022/08/13 08:14:01;;;;;;;4.47;2.23;;;;;;;;;;4908606;29;20576;-84
2022/08/13 08:17:08;;;;;;;272.70;15.40;;;;;;;;;;4919908;29;20656;-83
2022/08/13 08:20:21;;;;;;;36.07;4.00;;;;;;;;;;4942057;29;20208;-83
2022/08/13 08:23:26;;;;;;;4.30;2.40;;;;;;;;;;4934270;29;20215;-84
2022/08/13 08:26:33;;;;;;;12.63;2.30;;;;;;;;;;4944000;29;20665;-84
2022/08/13 08:29:40;;;;;;;3.43;2.07;;;;;;;;;;4922179;29;20198;-84
2022/08/13 08:32:53;;;;;;;2.73;2.30;;;;;;;;;;4918837;29;20231;-84
2022/08/13 08:35:58;;;;;;;9.30;2.70;;;;;;;;;;4918035;29;20192;-85
2022/08/13 08:42:36;;;;;;;20.38;2.70;;;;;;;;;;4925141;29;20590;-84
2022/08/13 08:45:43;;;;;;;3.78;2.10;;;;;;;;;;4928365;29;20195;-85
2022/08/13 08:48:47;;;;;;;5.05;1.77;;;;;;;;;;4938018;29;20531;-85
2022/08/13 08:51:53;;;;;;;6.50;1.88;;;;;;;;;;4927923;29;20542;-85
2022/08/13 08:54:58;;;;;;;8.65;1.95;;;;;;;;;;4949991;29;20203;-85
2022/08/13 08:58:06;;;;;;;3.58;1.75;;;;;;;;;;4938395;29;20656;-84
2022/08/13 09:01:11;;;;;;;1.60;1.50;;;;;;;;;;4916810;29;20178;-84
2022/08/13 09:04:14;;;;;;;5.85;1.60;;;;;;;;;;4905925;29;20170;-84
2022/08/13 09:07:23;;;;;;;23.90;2.78;;;;;;;;;;4898050;29;20199;-84
2022/08/13 09:10:33;;;;;;;4.55;1.60;;;;;;;;;;4919530;29;20177;-84
2022/08/13 09:13:37;;;;;;;17.38;2.17;;;;;;;;;;4908492;29;20240;-85
2022/08/13 09:16:42;;;;;;;6.15;1.90;;;;;;;;;;4908465;29;20189;-85
2022/08/13 09:19:46;;;;;;;7.85;1.88;;;;;;;;;;4908679;29;20185;-84
2022/08/13 09:23:14;;;;;;;4.18;1.90;;;;;;;;;;4932356;29;20225;-84
2022/08/13 09:26:20;;;;;;;18.80;2.33;;;;;;;;;;4908418;29;20194;-85
2022/08/13 09:29:24;;;;;;;4.45;1.92;;;;;;;;;;4972666;23;20224;-85
2022/08/13 09:32:29;;;;;;;4.65;1.55;;;;;;;;;;5002581;28;20686;-86
2022/08/13 09:35:33;;;;;;;18.35;2.20;;;;;;;;;;5012806;28;20666;-85
2022/08/13 09:38:38;;;;;;;9.48;1.75;;;;;;;;;;4993048;28;20181;-86
2022/08/13 09:41:51;;;;;;;3.58;1.58;;;;;;;;;;5004465;28;20194;-85
2022/08/13 09:44:58;;;;;;;3.20;1.55;;;;;;;;;;5004217;28;20197;-83
2022/08/13 09:48:07;;;;;;;2.33;1.40;;;;;;;;;;5036311;28;20208;-86
2022/08/13 09:51:13;;;;;;;1.50;1.40;;;;;;;;;;4993591;28;20182;-87
2022/08/13 09:54:18;;;;;;;1.30;1.17;;;;;;;;;;4993321;28;20548;-86
2022/08/13 09:57:22;;;;;;;2.78;1.65;;;;;;;;;;4981908;28;20533;-86
2022/08/13 10:00:31;;;;;;;3.20;1.80;;;;;;;;;;4981586;28;20568;-86
2022/08/13 10:03:38;;;;;;;2.88;1.63;;;;;;;;;;5000124;28;20638;-86
2022/08/13 10:06:43;;;;;;;3.13;1.50;;;;;;;;;;5023122;28;20177;-86
2022/08/13 10:09:49;;;;;;;1.92;1.67;;;;;;;;;;5022987;28;20221;-85
2022/08/13 10:12:53;;;;;;;23.98;2.72;;;;;;;;;;5029974;28;20217;-86
2022/08/13 10:15:58;;;;;;;11.48;1.85;;;;;;;;;;4991884;28;20177;-86
2022/08/13 10:19:03;;;;;;;1.70;1.60;;;;;;;;;;4980828;28;20217;-86
2022/08/13 10:22:07;;;;;;;147.88;9.35;;;;;;;;;;4982860;28;20202;-86
2022/08/13 10:25:12;;;;;;;7.50;1.75;;;;;;;;;;4991845;28;20552;-86
2022/08/13 10:28:25;;;;;;;5.32;1.58;;;;;;;;;;4995583;28;20181;-86
2022/08/13 10:31:30;;;;;;;3.00;1.60;;;;;;;;;;5002296;28;20204;-85
2022/08/13 10:34:34;;;;;;;1.55;1.40;;;;;;;;;;4984762;28;20214;-86
2022/08/13 10:37:44;;;;;;;2.33;1.58;;;;;;;;;;5025369;28;20177;-85
2022/08/13 10:40:48;;;;;;;2.88;1.33;;;;;;;;;;5027777;28;20217;-86
2022/08/13 10:43:59;;;;;;;10.25;1.65;;;;;;;;;;5019189;28;20193;-86
2022/08/13 10:47:04;;;;;;;2.58;1.55;;;;;;;;;;5031279;28;20193;-85
2022/08/13 10:50:08;;;;;;;12.60;3.08;;;;;;;;;;5041719;28;20217;-86
2022/08/13 10:53:55;;;;;;;13.05;4.20;;;;;;;;;;5009879;28;20695;-86
2022/08/13 10:56:37;;;;;;;53.97;5.25;;;;;;;;;;4998896;28;20186;-86
2022/08/13 10:59:43;;;;;;;7.78;2.13;;;;;;;;;;4999498;28;20217;-85
2022/08/13 11:02:49;;;;;;;24.63;3.20;;;;;;;;;;4996047;28;20197;-86
2022/08/13 11:05:53;;;;;;;63.90;5.10;;;;;;;;;;4998407;28;20190;-85
2022/08/13 11:08:59;;;;;;;10.15;2.13;;;;;;;;;;4986598;28;20217;-89
2022/08/13 11:12:05;;;;;;;10.18;1.77;;;;;;;;;;4985951;28;20547;-89
2022/08/13 11:15:09;;;;;;;56.47;4.35;;;;;;;;;;4986233;28;20174;-88
2022/08/13 11:18:14;;;;;;;60.10;4.63;;;;;;;;;;4996706;28;20201;-88
2022/08/13 11:21:18;;;;;;;3.17;2.05;;;;;;;;;;4996119;28;20186;-86
2022/08/13 11:24:22;;;;;;;2.40;1.90;;;;;;;;;;4997224;28;20178;-86
2022/08/13 11:27:27;;;;;;;21.23;2.67;;;;;;;;;;4995089;28;20202;-87
2022/08/13 11:30:31;;;;;;;24.55;2.38;;;;;;;;;;4994011;28;20225;-87
2022/08/13 11:33:35;;;;;;;116.97;9.13;;;;;;;;;;4993475;28;20201;-87
2022/08/13 11:36:39;;;;;;;23.67;2.10;;;;;;;;;;4993299;28;20197;-87
2022/08/13 11:39:43;;;;;;;3.75;1.35;;;;;;;;;;5015243;28;20221;-87
2022/08/13 11:42:47;;;;;;;1.58;1.40;;;;;;;;;;4988251;28;20559;-87
2022/08/13 11:45:52;;;;;;;8.05;1.90;;;;;;;;;;4984271;28;20186;-87
2022/08/13 11:48:56;;;;;;;15.80;1.88;;;;;;;;;;4991416;28;20221;-84
2022/08/13 11:52:01;;;;;;;42.45;3.03;;;;;;;;;;4980085;28;20173;-86
2022/08/13 11:55:05;;;;;;;34.85;3.25;;;;;;;;;;4991490;28;20210;-86
2022/08/13 11:58:10;;;;;;;5.43;1.70;;;;;;;;;;4980874;28;20174;-85
2022/08/13 12:01:18;;;;;;;8.98;2.40;;;;;;;;;;4980015;28;20182;-86
2022/08/13 12:04:22;;;;;;;9.15;2.38;;;;;;;;;;4993223;28;21393;-87
2022/08/13 12:07:26;;;;;;;2.13;1.92;;;;;;;;;;5005436;28;20193;-86
2022/08/13 12:10:31;;;;;;;2.60;1.17;;;;;;;;;;4990533;28;20221;-86
2022/08/13 12:13:35;;;;;;;1.50;1.20;;;;;;;;;;5000226;28;20209;-87
2022/08/13 12:16:39;;;;;;;3.45;1.55;;;;;;;;;;4994339;28;20182;-86
2022/08/13 12:19:43;;;;;;;2.45;1.45;;;;;;;;;;5032638;28;20225;-86
2022/08/13 12:22:52;;;;;;;1.60;1.50;;;;;;;;;;5023314;28;20201;-86
2022/08/13 12:25:56;;;;;;;95.13;5.85;;;;;;;;;;4994486;28;20182;-86
2022/08/13 12:29:01;;;;;;;2.58;1.40;;;;;;;;;;4999377;28;20228;-86
2022/08/13 12:32:05;;;;;;;10.82;2.15;;;;;;;;;;4991761;28;20190;-86
2022/08/13 12:35:09;;;;;;;4.60;1.30;;;;;;;;;;4985800;28;20209;-86
2022/08/13 12:38:14;;;;;;;8.27;1.50;;;;;;;;;;5006010;28;20182;-87
2022/08/13 12:41:18;;;;;;;2.65;1.48;;;;;;;;;;4983242;28;20201;-86
2022/08/13 12:44:23;;;;;;;5.57;2.90;;;;;;;;;;5001662;28;20201;-87
2022/08/13 12:47:27;;;;;;;87.68;6.55;;;;;;;;;;5023540;28;20193;-86
2022/08/13 12:50:31;;;;;;;3.83;1.48;;;;;;;;;;4995237;28;20560;-87
2022/08/13 12:53:35;;;;;;;10.35;1.60;;;;;;;;;;4994850;28;20218;-87
2022/08/13 12:56:40;;;;;;;6.47;1.63;;;;;;;;;;5017846;28;20193;-86
2022/08/13 12:59:44;;;;;;;1.80;1.20;;;;;;;;;;5012160;28;20221;-86
2022/08/13 13:02:48;;;;;;;2.38;1.30;;;;;;;;;;5014794;28;20209;-86
2022/08/13 13:05:53;;;;;;;6.13;1.50;;;;;;;;;;5036793;28;20177;-87
2022/08/13 13:08:58;;;;;;;2.42;1.52;;;;;;;;;;5024762;28;20213;-86
2022/08/13 13:12:02;;;;;;;1.38;1.27;;;;;;;;;;5024494;28;20177;-86
2022/08/13 13:15:07;;;;;;;1.50;1.05;;;;;;;;;;5035743;28;20205;-86
2022/08/13 13:18:20;;;;;;;2.15;1.30;;;;;;;;;;5035881;28;20186;-85
2022/08/13 13:21:26;;;;;;;31.40;3.55;;;;;;;;;;5004324;28;20178;-86
2022/08/13 13:24:31;;;;;;;4.60;1.50;;;;;;;;;;4993328;28;20194;-87
2022/08/13 13:27:36;;;;;;;3.95;1.70;;;;;;;;;;5023184;28;20205;-87
2022/08/13 13:30:40;;;;;;;2.13;1.40;;;;;;;;;;4998946;28;20229;-87
2022/08/13 13:33:44;;;;;;;3.38;1.35;;;;;;;;;;5001765;28;20205;-87
2022/08/13 13:36:48;;;;;;;1.25;1.13;;;;;;;;;;5013596;28;20189;-86
2022/08/13 13:39:52;;;;;;;1.45;1.25;;;;;;;;;;5015559;28;20217;-86
2022/08/13 13:42:58;;;;;;;1.23;0.90;;;;;;;;;;5005171;28;20181;-86
2022/08/13 13:46:02;;;;;;;1.52;1.17;;;;;;;;;;5000447;28;20193;-86
2022/08/13 13:49:06;;;;;;;29.40;2.88;;;;;;;;;;5001154;28;20216;-87
2022/08/13 13:52:11;;;;;;;10.77;1.75;;;;;;;;;;5004414;28;20182;-86
2022/08/13 13:55:15;;;;;;;7.50;1.50;;;;;;;;;;4995480;28;20577;-87
2022/08/13 13:58:20;;;;;;;3.90;1.63;;;;;;;;;;5001008;28;20193;-87
2022/08/13 14:01:25;;;;;;;5.78;1.55;;;;;;;;;;5000219;28;20185;-87
2022/08/13 14:04:29;;;;;;;1.20;1.10;;;;;;;;;;5023838;28;20177;-87
2022/08/13 14:07:34;;;;;;;1.60;1.20;;;;;;;;;;5023508;28;20201;-87
2022/08/13 14:10:42;;;;;;;1.42;1.33;;;;;;;;;;5003361;28;20221;-87
2022/08/13 14:13:46;;;;;;;1.75;1.27;;;;;;;;;;5014821;28;20206;-87
2022/08/13 14:16:52;;;;;;;3.65;1.30;;;;;;;;;;5003641;28;20198;-87
2022/08/13 14:19:58;;;;;;;12.35;1.38;;;;;;;;;;4992916;28;20213;-87
2022/08/13 14:23:02;;;;;;;15.93;2.10;;;;;;;;;;5020857;28;20177;-87
2022/08/13 14:26:06;;;;;;;1.80;1.15;;;;;;;;;;5008947;28;20194;-87
2022/08/13 14:29:10;;;;;;;4.30;1.60;;;;;;;;;;4992323;28;20217;-87
2022/08/13 14:32:15;;;;;;;7.00;1.55;;;;;;;;;;4992968;28;20178;-87
2022/08/13 14:35:19;;;;;;;3.13;1.35;;;;;;;;;;4999318;28;20664;-87
2022/08/13 14:38:23;;;;;;;1.30;1.20;;;;;;;;;;5024435;28;20185;-87
2022/08/13 14:41:27;;;;;;;11.32;1.80;;;;;;;;;;5022491;28;20205;-87
2022/08/13 14:44:31;;;;;;;5.68;1.60;;;;;;;;;;5006955;28;20181;-87
2022/08/13 14:47:36;;;;;;;39.63;4.75;;;;;;;;;;5003136;28;20201;-87
2022/08/13 14:50:46;;;;;;;33.20;2.58;;;;;;;;;;5010351;28;20220;-87
2022/08/13 14:53:54;;;;;;;15.43;1.92;;;;;;;;;;5007564;28;20711;-86
2022/08/13 14:56:59;;;;;;;7.22;1.52;;;;;;;;;;5003168;28;20644;-87
2022/08/13 15:00:06;;;;;;;1.50;1.40;;;;;;;;;;4989453;28;20214;-87
2022/08/13 15:03:14;;;;;;;2.38;1.30;;;;;;;;;;5003059;28;20197;-87
2022/08/13 15:06:20;;;;;;;17.25;1.90;;;;;;;;;;4989852;28;20201;-87
2022/08/13 15:09:24;;;;;;;2.08;1.30;;;;;;;;;;5022299;28;20228;-87
2022/08/13 15:12:28;;;;;;;4.43;1.10;;;;;;;;;;5002355;28;20210;-85
2022/08/13 15:15:32;;;;;;;1.38;1.10;;;;;;;;;;5003802;28;20224;-87
2022/08/13 15:18:39;;;;;;;3.65;1.40;;;;;;;;;;5010815;28;20205;-87
2022/08/13 15:21:45;;;;;;;2.17;1.23;;;;;;;;;;5015021;28;20546;-88
2022/08/13 15:24:49;;;;;;;5.10;1.45;;;;;;;;;;4979965;28;20205;-87
2022/08/13 15:27:56;;;;;;;3.70;1.25;;;;;;;;;;4991155;28;20178;-87
2022/08/13 15:31:01;;;;;;;6.43;1.77;;;;;;;;;;5017873;23;20234;-74
2022/08/13 15:34:09;;;;;;;2.00;1.50;;;;;;;;;;4968748;28;20234;-75
2022/08/13 15:37:13;;;;;;;1.55;1.10;;;;;;;;;;4992830;28;20187;-75
2022/08/13 15:40:20;;;;;;;4.18;1.42;;;;;;;;;;4984369;28;20534;-75
2022/08/13 15:43:29;;;;;;;3.05;1.40;;;;;;;;;;4974148;28;20211;-75
2022/08/13 15:46:33;;;;;;;4.60;1.50;;;;;;;;;;4974184;28;20179;-74
2022/08/13 15:49:40;;;;;;;4.18;1.58;;;;;;;;;;4976953;28;20195;-74
2022/08/13 15:52:44;;;;;;;4.97;1.30;;;;;;;;;;4970760;28;20199;-76
2022/08/13 15:55:50;;;;;;;14.77;1.90;;;;;;;;;;4983944;28;20225;-75
2022/08/13 15:58:54;;;;;;;5.32;1.38;;;;;;;;;;4994723;28;20660;-74
2022/08/13 16:01:59;;;;;;;3.65;1.38;;;;;;;;;;4979576;28;20561;-74
2022/08/13 16:05:05;;;;;;;1.10;1.00;;;;;;;;;;4996716;28;20179;-74
2022/08/13 16:08:12;;;;;;;2.08;1.30;;;;;;;;;;4990933;28;20194;-75
2022/08/13 16:11:16;;;;;;;5.80;1.40;;;;;;;;;;4977664;28;20566;-75
2022/08/13 16:14:20;;;;;;;3.70;1.40;;;;;;;;;;4977673;28;20187;-75
2022/08/13 16:17:24;;;;;;;1.63;1.35;;;;;;;;;;4996203;28;20193;-74
2022/08/13 16:20:30;;;;;;;7.50;1.58;;;;;;;;;;4978295;28;20201;-75
2022/08/13 16:23:34;;;;;;;4.40;1.20;;;;;;;;;;4977378;28;20536;-74
2022/08/13 16:26:38;;;;;;;2.40;1.40;;;;;;;;;;4997040;28;20179;-74
2022/08/13 16:29:43;;;;;;;11.50;1.70;;;;;;;;;;4996202;28;20209;-75
2022/08/13 16:32:50;;;;;;;13.05;1.75;;;;;;;;;;4996426;28;20188;-76
2022/08/13 16:35:54;;;;;;;3.70;1.40;;;;;;;;;;4996391;28;20687;-76
2022/08/13 16:38:58;;;;;;;3.03;1.60;;;;;;;;;;4991687;28;20206;-76
2022/08/13 16:42:04;;;;;;;2.65;1.30;;;;;;;;;;4976661;28;20677;-77
2022/08/13 16:45:13;;;;;;;7.00;1.30;;;;;;;;;;4976924;28;20177;-76
2022/08/13 16:48:21;;;;;;;1.35;1.13;;;;;;;;;;4987172;28;20188;-76
2022/08/13 16:51:25;;;;;;;3.55;1.25;;;;;;;;;;4976024;28;20226;-76
2022/08/13 16:54:29;;;;;;;3.42;1.38;;;;;;;;;;4976785;28;20186;-76
2022/08/13 16:57:41;;;;;;;1.48;1.38;;;;;;;;;;4977282;28;20656;-76
2022/08/13 17:00:45;;;;;;;13.38;1.70;;;;;;;;;;4976808;28;20224;-76
2022/08/13 17:10:37;;;;;;;5.10;1.50;;;;;;;;;;4975418;28;20234;-76
2022/08/13 17:13:43;;;;;;;3.03;1.45;;;;;;;;;;4988897;28;20538;-76
2022/08/13 17:16:49;;;;;;;5.75;1.85;;;;;;;;;;4996137;28;20216;-76
2022/08/13 17:19:53;;;;;;;41.10;5.95;;;;;;;;;;4996298;28;20628;-76
2022/08/13 17:23:01;;;;;;;50.63;4.40;;;;;;;;;;4995830;28;20186;-76
2022/08/13 17:26:07;;;;;;;11.18;2.00;;;;;;;;;;4995408;28;20196;-76
2022/08/13 17:29:19;;;;;;;3.50;1.50;;;;;;;;;;4984210;28;20178;-77
2022/08/13 17:32:23;;;;;;;10.93;2.00;;;;;;;;;;4981584;28;20224;-76
2022/08/13 17:35:27;;;;;;;11.13;1.60;;;;;;;;;;4990420;28;20202;-75
2022/08/13 17:38:32;;;;;;;6.07;1.20;;;;;;;;;;4994087;28;20190;-76
2022/08/13 17:41:36;;;;;;;1.30;1.20;;;;;;;;;;4992789;28;20570;-76
2022/08/13 17:44:40;;;;;;;1.70;1.40;;;;;;;;;;5005315;28;20184;-75
2022/08/13 17:47:44;;;;;;;3.95;1.48;;;;;;;;;;4993007;28;20188;-75
2022/08/13 17:50:49;;;;;;;1.52;1.35;;;;;;;;;;4994336;28;20688;-76
2022/08/13 17:53:54;;;;;;;1.97;1.63;;;;;;;;;;4987825;28;20196;-75
2022/08/13 17:56:58;;;;;;;3.80;1.43;;;;;;;;;;4992579;28;20210;-76
2022/08/13 18:00:03;;;;;;;3.20;1.40;;;;;;;;;;4990315;28;20195;-76
2022/08/13 18:03:13;;;;;;;6.10;1.40;;;;;;;;;;5001631;28;20213;-75
2022/08/13 18:06:18;;;;;;;3.43;1.60;;;;;;;;;;4983353;28;20186;-75
2022/08/13 18:09:23;;;;;;;5.13;1.40;;;;;;;;;;4994246;28;20189;-75
2022/08/13 18:12:27;;;;;;;2.30;1.50;;;;;;;;;;4994245;28;20226;-76
2022/08/13 18:15:32;;;;;;;2.93;1.60;;;;;;;;;;4992597;28;20673;-76
2022/08/13 18:18:36;;;;;;;3.37;1.53;;;;;;;;;;4979949;28;20188;-76
2022/08/13 18:21:41;;;;;;;17.73;2.00;;;;;;;;;;4976379;28;20229;-76
2022/08/13 18:24:45;;;;;;;7.50;1.60;;;;;;;;;;4975730;28;20193;-76
2022/08/13 18:27:49;;;;;;;2.10;1.83;;;;;;;;;;4974436;28;20181;-76
2022/08/13 18:30:55;;;;;;;5.93;1.70;;;;;;;;;;4976542;28;20567;-76
2022/08/13 18:34:00;;;;;;;7.53;1.40;;;;;;;;;;4981899;28;20194;-76
2022/08/13 18:37:06;;;;;;;16.43;2.43;;;;;;;;;;4975152;28;20659;-75
2022/08/13 18:40:14;;;;;;;11.90;2.10;;;;;;;;;;4974638;28;20199;-75
2022/08/13 18:43:20;;;;;;;7.60;1.90;;;;;;;;;;4980981;28;20182;-75
2022/08/13 18:46:25;;;;;;;7.10;2.00;;;;;;;;;;4983877;28;20191;-76
2022/08/13 18:49:29;;;;;;;1.63;1.50;;;;;;;;;;4975483;28;20626;-75
2022/08/13 18:52:33;;;;;;;3.63;1.73;;;;;;;;;;4982353;28;20217;-76
2022/08/13 18:55:37;;;;;;;8.57;2.00;;;;;;;;;;4992968;28;20210;-76
2022/08/13 18:58:43;;;;;;;6.60;2.07;;;;;;;;;;4991115;28;20534;-76
2022/08/13 19:01:47;;;;;;;2.53;1.73;;;;;;;;;;4973447;28;20219;-76